Time;durP1;ratioP1;P1;durP2;ratioP2;P2;SDS_P1;SDS_P2;PMS_P1;PMS_P2;Temp;Humidity;BMP_temperature;BMP_pressure;BME280_temperature;BME280_humidity;BME280_pressure;Samples;Min_cycle;Max_cycle;Signal;HPM_P1;HPM_P2
2023/11/15 00:00:17;;;;;;;17.37;3.37;;;12.20;99.90;;;;;;7283650;19;20193;-82
2023/11/15 00:02:44;;;;;;;18.23;3.13;;;12.30;99.90;;;;;;7286276;19;20214;-82
2023/11/15 00:05:11;;;;;;;21.17;2.73;;;12.20;99.90;;;;;;7284699;19;20595;-80
2023/11/15 00:07:37;;;;;;;16.23;2.43;;;12.30;99.90;;;;;;7284838;19;20573;-80
2023/11/15 00:10:03;;;;;;;21.67;3.20;;;12.30;99.90;;;;;;7285590;19;20216;-79
2023/11/15 00:12:31;;;;;;;22.53;3.43;;;12.40;99.90;;;;;;7285269;19;20204;-79
2023/11/15 00:14:57;;;;;;;23.87;3.80;;;12.40;99.90;;;;;;7284326;19;20196;-80
2023/11/15 00:17:23;;;;;;;17.97;2.80;;;12.40;99.90;;;;;;7285242;19;20204;-79
2023/11/15 00:19:49;;;;;;;19.87;2.90;;;12.40;99.90;;;;;;7305540;19;20189;-80
2023/11/15 00:22:15;;;;;;;25.13;2.97;;;12.30;99.90;;;;;;7284533;19;20200;-81
2023/11/15 00:24:42;;;;;;;20.90;3.23;;;12.30;99.90;;;;;;7285862;19;20208;-80
2023/11/15 00:27:08;;;;;;;19.80;2.80;;;12.30;99.90;;;;;;7283665;19;20268;-80
2023/11/15 00:29:34;;;;;;;21.13;2.67;;;12.20;99.90;;;;;;7285380;19;20687;-80
2023/11/15 00:32:00;;;;;;;22.87;3.57;;;12.20;99.90;;;;;;7286776;19;20215;-80
2023/11/15 00:34:26;;;;;;;23.03;3.77;;;12.20;99.90;;;;;;7282569;19;20192;-80
2023/11/15 00:36:53;;;;;;;21.23;3.77;;;12.20;99.90;;;;;;7298103;19;20189;-80
2023/11/15 00:39:21;;;;;;;25.20;3.60;;;12.20;99.90;;;;;;7304905;19;21884;-80
2023/11/15 00:41:47;;;;;;;25.27;3.57;;;12.30;99.90;;;;;;7285125;19;20193;-80
2023/11/15 00:44:16;;;;;;;20.77;2.60;;;12.30;99.90;;;;;;7280280;19;20691;-80
2023/11/15 00:46:42;;;;;;;17.23;3.23;;;12.40;99.90;;;;;;7284516;19;20257;-80
2023/11/15 00:49:08;;;;;;;24.40;3.33;;;12.40;99.90;;;;;;7284211;19;20189;-80
2023/11/15 00:51:34;;;;;;;24.17;3.37;;;12.40;99.90;;;;;;7284961;19;20663;-80
2023/11/15 00:54:01;;;;;;;26.17;4.10;;;12.40;99.90;;;;;;7283731;19;20652;-80
2023/11/15 00:56:27;;;;;;;21.87;3.50;;;12.50;99.90;;;;;;7285099;19;20196;-80
2023/11/15 00:58:54;;;;;;;19.03;3.90;;;12.50;99.90;;;;;;7287663;19;20185;-80
2023/11/15 01:01:20;;;;;;;19.13;3.13;;;12.50;99.90;;;;;;7304916;19;20181;-81
2023/11/15 01:03:55;;;;;;;25.43;3.80;;;12.60;99.90;;;;;;7285023;19;20189;-81
2023/11/15 01:06:23;;;;;;;20.93;2.90;;;12.70;99.90;;;;;;7281842;19;20210;-80
2023/11/15 01:08:49;;;;;;;24.37;3.20;;;12.60;99.90;;;;;;7308550;19;20209;-80
2023/11/15 01:11:15;;;;;;;25.97;3.33;;;12.60;99.90;;;;;;7283718;19;20299;-80
2023/11/15 01:13:41;;;;;;;18.97;3.00;;;12.60;99.90;;;;;;7284177;19;20210;-80
2023/11/15 01:16:07;;;;;;;19.33;2.80;;;12.60;99.90;;;;;;7282962;19;20628;-80
2023/11/15 01:18:36;;;;;;;15.27;2.97;;;12.60;99.90;;;;;;7283392;19;20243;-80
2023/11/15 01:21:02;;;;;;;24.30;3.30;;;12.50;99.90;;;;;;7282768;19;20542;-80
2023/11/15 01:23:28;;;;;;;18.50;3.03;;;12.50;99.90;;;;;;7282574;19;20189;-80
2023/11/15 01:25:55;;;;;;;19.33;3.27;;;12.50;99.90;;;;;;7282951;19;20203;-80
2023/11/15 01:28:21;;;;;;;24.07;3.90;;;12.50;99.90;;;;;;7304994;19;20268;-80
2023/11/15 01:30:47;;;;;;;26.37;3.53;;;12.60;99.90;;;;;;7284145;19;20236;-80
2023/11/15 01:33:14;;;;;;;26.00;3.73;;;12.60;99.90;;;;;;7281248;19;20185;-80
2023/11/15 01:35:40;;;;;;;17.40;2.90;;;12.60;99.90;;;;;;7284023;19;20196;-80
2023/11/15 01:38:05;;;;;;;24.37;3.67;;;12.40;99.90;;;;;;7281133;19;20185;-80
2023/11/15 01:40:34;;;;;;;22.07;4.10;;;12.50;99.90;;;;;;7283589;19;20182;-80
2023/11/15 01:43:01;;;;;;;26.17;4.03;;;12.40;99.90;;;;;;7283387;19;20206;-80
2023/11/15 01:45:27;;;;;;;22.33;3.60;;;12.40;99.90;;;;;;7282543;19;20559;-79
2023/11/15 01:47:54;;;;;;;25.23;3.57;;;12.40;99.90;;;;;;7281479;19;20240;-80
2023/11/15 01:50:21;;;;;;;25.47;3.47;;;12.50;99.90;;;;;;7305683;19;20203;-80
2023/11/15 01:52:47;;;;;;;25.17;3.53;;;12.50;99.90;;;;;;7287349;19;20262;-80
2023/11/15 01:55:16;;;;;;;26.47;3.23;;;12.50;99.90;;;;;;7288980;19;20180;-80
2023/11/15 01:57:42;;;;;;;16.83;3.30;;;12.50;99.90;;;;;;7290475;19;20664;-80
2023/11/15 02:00:10;;;;;;;25.77;3.67;;;12.50;99.90;;;;;;7285886;19;20275;-80
2023/11/15 02:02:41;;;;;;;24.37;3.83;;;12.40;99.90;;;;;;7289737;19;20200;-81
2023/11/15 02:05:09;;;;;;;23.87;3.50;;;12.40;99.90;;;;;;7289345;19;20260;-80
2023/11/15 02:07:39;;;;;;;21.83;3.83;;;12.40;99.90;;;;;;7288969;19;20197;-80
2023/11/15 02:10:06;;;;;;;22.00;3.40;;;12.40;99.90;;;;;;7290495;19;20186;-80
2023/11/15 02:12:33;;;;;;;23.70;3.23;;;12.30;99.90;;;;;;7289264;19;20193;-80
2023/11/15 02:14:59;;;;;;;22.17;3.27;;;12.30;99.90;;;;;;7289078;19;20196;-80
2023/11/15 02:17:26;;;;;;;27.53;3.70;;;12.30;99.90;;;;;;7289619;19;20671;-80
2023/11/15 02:19:52;;;;;;;24.50;3.50;;;12.30;99.90;;;;;;7305911;19;20199;-79
2023/11/15 02:22:18;;;;;;;27.93;3.37;;;12.30;99.90;;;;;;7302615;19;20185;-80
2023/11/15 02:24:44;;;;;;;20.43;3.53;;;12.30;99.90;;;;;;7290085;19;20287;-80
2023/11/15 02:27:13;;;;;;;22.10;3.20;;;12.30;99.90;;;;;;7298265;19;20181;-82
2023/11/15 02:29:41;;;;;;;24.93;3.63;;;12.40;99.90;;;;;;7290309;19;20189;-83
2023/11/15 02:32:07;;;;;;;22.67;3.23;;;12.20;99.90;;;;;;7288476;19;20268;-82
2023/11/15 02:34:33;;;;;;;23.53;3.60;;;12.10;99.90;;;;;;7289530;19;20196;-82
2023/11/15 02:36:59;;;;;;;27.50;5.20;;;12.00;99.90;;;;;;7288488;19;20211;-83
2023/11/15 02:39:25;;;;;;;20.20;3.90;;;12.00;99.90;;;;;;7286599;19;20188;-82
2023/11/15 02:41:50;;;;;;;25.87;3.83;;;11.90;99.90;;;;;;7312527;19;20631;-83
2023/11/15 02:44:17;;;;;;;23.60;3.67;;;12.00;99.90;;;;;;7287840;19;20787;-83
2023/11/15 02:46:42;;;;;;;24.77;3.53;;;12.10;99.90;;;;;;7288553;19;20630;-83
2023/11/15 02:49:09;;;;;;;19.93;3.53;;;12.10;99.90;;;;;;7288605;19;20196;-82
2023/11/15 02:51:35;;;;;;;28.80;3.83;;;12.10;99.90;;;;;;7285230;19;20197;-83
2023/11/15 02:54:03;;;;;;;23.13;3.00;;;12.10;99.90;;;;;;7287291;19;20196;-82
2023/11/15 02:56:30;;;;;;;26.30;3.00;;;12.20;99.90;;;;;;7289088;19;20204;-83
2023/11/15 02:58:56;;;;;;;26.63;3.77;;;12.00;99.90;;;;;;7287955;19;20184;-82
2023/11/15 03:01:22;;;;;;;27.33;3.50;;;12.10;99.90;;;;;;7301244;19;20775;-82
2023/11/15 03:03:48;;;;;;;24.67;3.40;;;12.10;99.90;;;;;;7304089;19;20191;-82
2023/11/15 03:06:14;;;;;;;22.33;3.47;;;12.10;99.90;;;;;;7287308;19;20187;-83
2023/11/15 03:08:39;;;;;;;20.50;3.50;;;12.10;99.90;;;;;;7289579;19;20210;-82
2023/11/15 03:11:06;;;;;;;26.33;3.83;;;12.10;99.90;;;;;;7287040;19;20195;-83
2023/11/15 03:13:33;;;;;;;20.00;3.23;;;12.00;99.90;;;;;;7287145;19;20193;-82
2023/11/15 03:15:59;;;;;;;22.17;3.47;;;12.00;99.90;;;;;;7288457;19;20192;-82
2023/11/15 03:18:28;;;;;;;26.70;3.80;;;12.10;99.90;;;;;;7287520;19;20185;-82
2023/11/15 03:20:54;;;;;;;22.30;3.53;;;12.00;99.90;;;;;;7287276;19;20314;-81
2023/11/15 03:23:19;;;;;;;25.93;3.50;;;12.00;99.90;;;;;;7310502;19;20181;-82
2023/11/15 03:25:46;;;;;;;28.73;4.17;;;12.00;99.90;;;;;;7288004;19;20671;-82
2023/11/15 03:28:12;;;;;;;24.17;3.23;;;12.00;99.90;;;;;;7287412;19;20181;-83
2023/11/15 03:30:38;;;;;;;24.83;3.27;;;12.00;99.90;;;;;;7286870;19;20196;-82
2023/11/15 03:33:04;;;;;;;28.07;3.23;;;11.90;99.90;;;;;;7286156;19;20539;-82
2023/11/15 03:35:29;;;;;;;29.10;3.90;;;11.90;99.90;;;;;;7287199;19;20195;-83
2023/11/15 03:37:55;;;;;;;30.33;3.63;;;11.90;99.90;;;;;;7287170;19;20188;-82
2023/11/15 03:40:21;;;;;;;26.53;3.50;;;11.90;99.90;;;;;;7308462;19;20193;-83
2023/11/15 03:42:47;;;;;;;19.57;3.00;;;12.00;99.90;;;;;;7289352;19;20189;-82
2023/11/15 03:45:14;;;;;;;28.53;3.47;;;12.00;99.90;;;;;;7287259;19;20258;-82
2023/11/15 03:47:41;;;;;;;26.77;3.60;;;12.00;99.90;;;;;;7287632;19;20656;-82
2023/11/15 03:50:07;;;;;;;23.93;3.50;;;11.90;99.90;;;;;;7287096;19;20201;-83
2023/11/15 03:52:33;;;;;;;22.70;3.37;;;11.90;99.90;;;;;;7284822;19;20223;-82
2023/11/15 03:55:24;;;;;;;25.87;3.17;;;11.80;99.90;;;;;;7287045;19;20185;-82
2023/11/15 03:57:50;;;;;;;25.80;3.60;;;11.70;99.90;;;;;;7286711;19;20632;-82
2023/11/15 04:00:17;;;;;;;27.40;3.27;;;11.70;99.90;;;;;;7285908;19;20695;-83
2023/11/15 04:02:43;;;;;;;21.43;3.20;;;11.70;99.90;;;;;;7285550;19;20181;-82
2023/11/15 04:05:09;;;;;;;21.63;3.57;;;11.60;99.90;;;;;;7286537;19;20204;-82
2023/11/15 04:07:37;;;;;;;21.47;3.00;;;11.50;99.90;;;;;;7286943;19;20201;-82
2023/11/15 04:10:03;;;;;;;30.07;3.67;;;11.50;99.90;;;;;;7285658;19;20223;-83
2023/11/15 04:12:28;;;;;;;29.20;3.70;;;11.50;99.90;;;;;;7285352;19;20184;-82
2023/11/15 04:14:54;;;;;;;27.43;3.20;;;11.50;99.90;;;;;;7283577;19;20183;-82
2023/11/15 04:17:20;;;;;;;20.20;3.03;;;11.40;99.90;;;;;;7307592;19;20183;-83
2023/11/15 04:19:46;;;;;;;27.00;3.70;;;11.50;99.90;;;;;;7286584;19;20184;-82
2023/11/15 04:22:12;;;;;;;24.77;3.60;;;11.60;99.90;;;;;;7285492;19;20213;-83
2023/11/15 04:24:39;;;;;;;22.10;3.40;;;11.60;99.90;;;;;;7284912;19;20252;-82
2023/11/15 04:27:05;;;;;;;30.00;3.63;;;11.60;99.90;;;;;;7280853;19;20194;-83
2023/11/15 04:29:32;;;;;;;27.27;3.00;;;11.50;99.90;;;;;;7287031;19;20215;-83
2023/11/15 04:31:58;;;;;;;21.20;3.40;;;11.60;99.90;;;;;;7286005;19;20192;-82
2023/11/15 04:34:24;;;;;;;26.10;3.37;;;11.50;99.90;;;;;;7285888;19;20193;-82
2023/11/15 04:36:50;;;;;;;27.03;3.67;;;11.60;99.90;;;;;;7305066;19;20191;-82
2023/11/15 04:39:15;;;;;;;24.53;3.00;;;11.50;99.90;;;;;;7284461;19;20187;-82
2023/11/15 04:41:42;;;;;;;24.13;3.13;;;11.40;99.90;;;;;;7287080;19;20201;-83
2023/11/15 04:44:08;;;;;;;32.30;3.47;;;11.40;99.90;;;;;;7284531;19;20195;-82
2023/11/15 04:46:34;;;;;;;21.00;3.30;;;11.50;99.90;;;;;;7284536;19;20190;-82
2023/11/15 04:49:00;;;;;;;24.53;3.20;;;11.60;99.90;;;;;;7286360;19;20195;-82
2023/11/15 04:51:26;;;;;;;18.47;2.70;;;11.60;99.90;;;;;;7284629;19;20203;-82
2023/11/15 04:53:52;;;;;;;24.90;3.70;;;11.60;99.90;;;;;;7298904;19;20712;-81
2023/11/15 04:56:19;;;;;;;25.63;3.30;;;11.50;99.90;;;;;;7299562;19;20185;-82
2023/11/15 04:58:45;;;;;;;31.27;4.03;;;11.50;99.90;;;;;;7280855;19;20193;-82
2023/11/15 05:01:12;;;;;;;18.23;2.90;;;11.40;99.90;;;;;;7283307;19;20187;-82
2023/11/15 05:03:40;;;;;;;22.93;3.47;;;11.40;99.90;;;;;;7285160;19;20184;-82
2023/11/15 05:06:07;;;;;;;24.37;3.67;;;11.40;99.90;;;;;;7284140;19;20197;-82
2023/11/15 05:08:33;;;;;;;24.90;2.93;;;11.50;99.90;;;;;;7283863;19;20194;-82
2023/11/15 05:10:59;;;;;;;22.47;2.97;;;11.50;99.90;;;;;;7283481;19;20189;-81
2023/11/15 05:13:24;;;;;;;21.00;2.97;;;11.60;99.90;;;;;;7283782;19;20196;-80
2023/11/15 05:15:50;;;;;;;25.10;3.17;;;11.70;99.90;;;;;;7304091;19;20196;-80
2023/11/15 05:18:16;;;;;;;30.63;3.50;;;11.70;99.90;;;;;;7283215;19;20191;-80
2023/11/15 05:20:43;;;;;;;21.50;3.03;;;11.70;99.90;;;;;;7281279;19;20204;-81
2023/11/15 05:23:09;;;;;;;30.00;3.10;;;11.50;99.90;;;;;;7282550;19;20553;-80
2023/11/15 05:25:35;;;;;;;23.17;3.10;;;11.60;99.90;;;;;;7282293;19;20188;-80
2023/11/15 05:28:01;;;;;;;22.27;3.03;;;11.60;99.90;;;;;;7279610;19;20555;-80
2023/11/15 05:30:26;;;;;;;25.30;3.40;;;11.70;99.90;;;;;;7283698;19;20188;-80
2023/11/15 05:32:53;;;;;;;23.30;3.20;;;11.60;99.90;;;;;;7298677;19;20682;-80
2023/11/15 05:35:18;;;;;;;22.47;3.13;;;11.70;99.90;;;;;;7303194;19;20217;-80
2023/11/15 05:37:45;;;;;;;23.23;3.00;;;11.70;99.90;;;;;;7282854;19;20191;-80
2023/11/15 05:40:13;;;;;;;25.77;3.33;;;11.60;99.90;;;;;;7281701;19;20181;-80
2023/11/15 05:42:38;;;;;;;24.07;2.93;;;11.60;99.90;;;;;;7284474;19;20209;-80
2023/11/15 05:45:05;;;;;;;23.50;3.00;;;11.70;99.90;;;;;;7280870;19;20192;-80
2023/11/15 05:47:30;;;;;;;24.33;3.63;;;11.70;99.90;;;;;;7280841;19;20187;-80
2023/11/15 05:49:56;;;;;;;21.90;2.77;;;11.80;99.90;;;;;;7282671;19;20199;-79
2023/11/15 05:52:22;;;;;;;25.10;3.17;;;11.80;99.90;;;;;;7301745;19;20185;-79
2023/11/15 05:54:48;;;;;;;25.13;3.37;;;11.70;99.90;;;;;;7294732;19;20563;-80
2023/11/15 05:57:14;;;;;;;27.50;3.43;;;11.70;99.90;;;;;;7283533;19;20191;-80
2023/11/15 05:59:40;;;;;;;16.07;2.57;;;11.70;99.90;;;;;;7280533;19;20617;-79
2023/11/15 06:02:05;;;;;;;23.27;3.20;;;11.70;99.90;;;;;;7283066;19;20561;-80
2023/11/15 06:04:34;;;;;;;28.70;3.33;;;11.70;99.90;;;;;;7280538;19;20196;-80
2023/11/15 06:07:01;;;;;;;22.33;2.80;;;11.80;99.90;;;;;;7281147;19;20195;-80
2023/11/15 06:09:27;;;;;;;25.37;3.53;;;11.70;99.90;;;;;;7281724;19;20655;-80
2023/11/15 06:11:53;;;;;;;21.73;3.17;;;11.60;99.90;;;;;;7288784;19;20180;-79
2023/11/15 06:14:20;;;;;;;22.20;3.20;;;11.60;99.90;;;;;;7303106;19;20538;-80
2023/11/15 06:16:46;;;;;;;28.10;3.70;;;11.50;99.90;;;;;;7282384;19;20204;-80
2023/11/15 06:19:12;;;;;;;29.10;3.10;;;11.40;99.90;;;;;;7282350;19;20284;-80
2023/11/15 06:21:47;;;;;;;25.17;3.37;;;11.30;99.90;;;;;;7282901;19;20238;-81
2023/11/15 06:24:13;;;;;;;23.70;3.20;;;11.20;99.90;;;;;;7282972;19;20271;-81
2023/11/15 06:26:41;;;;;;;25.10;3.03;;;11.20;99.90;;;;;;7282831;19;20215;-82
2023/11/15 06:29:07;;;;;;;27.73;3.37;;;11.30;99.90;;;;;;7282503;19;20180;-85
2023/11/15 06:31:36;;;;;;;30.30;3.40;;;11.20;99.90;;;;;;7282188;19;20201;-79
2023/11/15 06:34:04;;;;;;;23.47;3.57;;;11.20;99.90;;;;;;7282240;19;20187;-78
2023/11/15 06:36:34;;;;;;;27.97;3.77;;;11.20;99.90;;;;;;7281062;19;20181;-78
2023/11/15 06:39:01;;;;;;;26.43;3.60;;;11.20;99.90;;;;;;7286733;19;20188;-78
2023/11/15 06:41:26;;;;;;;25.87;2.90;;;11.20;99.90;;;;;;7288686;19;20192;-78
2023/11/15 06:43:52;;;;;;;28.23;3.40;;;11.20;99.90;;;;;;7306963;19;20277;-78
2023/11/15 06:46:18;;;;;;;24.80;4.03;;;11.20;99.90;;;;;;7297840;19;20194;-79
2023/11/15 06:48:44;;;;;;;24.47;3.60;;;11.10;99.90;;;;;;7287670;19;20191;-78
2023/11/15 06:51:10;;;;;;;29.60;3.53;;;11.10;99.90;;;;;;7286787;19;20669;-78
2023/11/15 06:53:35;;;;;;;28.50;3.90;;;10.90;99.90;;;;;;7287509;19;20218;-79
2023/11/15 06:56:01;;;;;;;24.83;3.43;;;10.90;99.90;;;;;;7288540;19;20189;-78
2023/11/15 06:58:27;;;;;;;23.80;3.10;;;10.90;99.90;;;;;;7287155;19;20187;-83
2023/11/15 07:00:54;;;;;;;27.63;3.30;;;10.90;99.90;;;;;;7304870;19;20525;-80
2023/11/15 07:03:22;;;;;;;29.70;3.70;;;10.90;99.90;;;;;;7311934;19;20193;-78
2023/11/15 07:05:48;;;;;;;23.30;3.30;;;10.90;99.90;;;;;;7286944;19;20197;-79
2023/11/15 07:08:17;;;;;;;23.77;3.53;;;10.90;99.90;;;;;;7284468;19;20242;-78
2023/11/15 07:10:43;;;;;;;24.93;3.67;;;10.90;99.90;;;;;;7285645;19;20633;-78
2023/11/15 07:13:09;;;;;;;26.73;3.80;;;11.00;99.90;;;;;;7287533;19;20187;-78
2023/11/15 07:15:35;;;;;;;26.67;4.07;;;11.00;99.90;;;;;;7285425;19;20263;-77
2023/11/15 07:18:02;;;;;;;29.23;4.27;;;11.20;99.90;;;;;;7287902;19;20246;-77
2023/11/15 07:20:28;;;;;;;27.40;3.60;;;11.20;99.90;;;;;;7285069;19;20201;-78
2023/11/15 07:22:54;;;;;;;25.73;3.60;;;11.30;99.90;;;;;;7289491;19;20206;-77
2023/11/15 07:25:20;;;;;;;26.67;3.50;;;11.40;99.90;;;;;;7306584;19;20194;-78
2023/11/15 07:27:46;;;;;;;35.53;3.77;;;11.50;99.90;;;;;;7287378;19;20297;-78
2023/11/15 07:30:13;;;;;;;19.30;3.33;;;11.50;99.90;;;;;;7288147;19;20195;-77
2023/11/15 07:32:39;;;;;;;25.13;3.40;;;11.60;99.90;;;;;;7286030;19;20709;-78
2023/11/15 07:35:06;;;;;;;23.17;3.50;;;11.70;99.90;;;;;;7285581;19;20199;-78
2023/11/15 07:37:34;;;;;;;33.03;3.60;;;11.80;99.90;;;;;;7288065;19;20199;-77
2023/11/15 07:40:00;;;;;;;29.00;3.80;;;11.80;99.90;;;;;;7284441;19;20548;-77
2023/11/15 07:42:26;;;;;;;22.90;3.50;;;12.00;99.90;;;;;;7285845;19;20186;-78
2023/11/15 07:44:52;;;;;;;24.17;3.67;;;12.10;99.90;;;;;;7306164;19;20193;-77
2023/11/15 07:47:18;;;;;;;28.20;3.87;;;12.10;99.90;;;;;;7295526;19;20203;-78
2023/11/15 07:49:46;;;;;;;26.20;4.03;;;12.20;99.90;;;;;;7283686;19;20204;-77
2023/11/15 07:52:13;;;;;;;28.03;4.03;;;12.30;99.90;;;;;;7287348;19;20174;-78
2023/11/15 07:54:39;;;;;;;28.67;3.20;;;12.40;99.90;;;;;;7286506;19;20188;-77
2023/11/15 07:57:07;;;;;;;21.13;3.27;;;12.50;99.90;;;;;;7286650;19;20240;-77
2023/11/15 07:59:34;;;;;;;22.97;3.70;;;12.70;99.90;;;;;;7285624;19;20197;-77
2023/11/15 08:02:00;;;;;;;26.90;3.27;;;12.80;99.90;;;;;;7285635;19;20189;-77
2023/11/15 08:04:26;;;;;;;21.00;3.80;;;12.70;99.90;;;;;;7286089;19;20192;-77
2023/11/15 08:06:52;;;;;;;26.13;3.50;;;12.70;99.90;;;;;;7308534;19;20204;-77
2023/11/15 08:09:24;;;;;;;27.97;4.23;;;12.60;99.90;;;;;;7298141;19;20200;-78
2023/11/15 08:12:00;;;;;;;29.27;4.07;;;12.60;99.90;;;;;;7287107;19;20188;-77
2023/11/15 08:14:29;;;;;;;31.27;3.73;;;12.50;99.90;;;;;;7263986;19;20662;-77
2023/11/15 08:16:54;;;;;;;26.67;3.53;;;12.50;99.90;;;;;;7286820;19;20513;-77
2023/11/15 08:19:20;;;;;;;25.07;3.93;;;12.30;99.90;;;;;;7305655;19;20177;-77
2023/11/15 08:21:50;;;;;;;27.47;3.87;;;12.30;99.90;;;;;;7285115;19;20184;-78
2023/11/15 08:24:22;;;;;;;28.07;3.27;;;12.30;99.90;;;;;;7285521;19;20248;-78
2023/11/15 08:26:52;;;;;;;25.37;4.23;;;12.30;99.90;;;;;;7285668;19;20181;-78
2023/11/15 08:29:18;;;;;;;22.23;3.70;;;12.50;99.90;;;;;;7286605;19;20181;-77
2023/11/15 08:31:44;;;;;;;22.27;3.50;;;12.50;99.90;;;;;;7285670;19;20261;-77
2023/11/15 08:34:10;;;;;;;21.93;3.10;;;12.60;99.90;;;;;;7285029;19;20192;-77
2023/11/15 08:36:37;;;;;;;26.80;3.33;;;12.70;99.90;;;;;;7285272;19;20189;-77
2023/11/15 08:39:04;;;;;;;25.17;3.37;;;12.70;99.90;;;;;;7285674;19;20198;-77
2023/11/15 08:41:30;;;;;;;24.23;3.30;;;12.80;99.90;;;;;;7282873;19;20274;-77
2023/11/15 08:43:56;;;;;;;24.80;3.50;;;12.90;99.90;;;;;;7284481;19;20184;-77
2023/11/15 08:46:26;;;;;;;19.33;3.20;;;13.00;99.90;;;;;;7305918;19;20193;-78
2023/11/15 08:48:52;;;;;;;19.20;3.33;;;12.90;99.90;;;;;;7284553;19;20199;-77
2023/11/15 08:51:19;;;;;;;14.03;2.80;;;12.90;99.90;;;;;;7285474;19;20196;-77
2023/11/15 08:53:45;;;;;;;22.60;2.83;;;12.70;99.90;;;;;;7285126;19;20184;-78
2023/11/15 08:56:13;;;;;;;19.07;2.73;;;12.70;99.90;;;;;;7287081;19;20216;-78
2023/11/15 08:58:39;;;;;;;21.73;3.20;;;12.70;99.90;;;;;;7284852;19;20648;-77
2023/11/15 09:01:09;;;;;;;20.90;2.87;;;12.70;99.90;;;;;;7282599;19;20531;-77
2023/11/15 09:03:34;;;;;;;26.00;3.77;;;12.80;99.90;;;;;;7285450;19;20186;-77
2023/11/15 09:06:01;;;;;;;18.97;2.67;;;13.00;99.90;;;;;;7284863;19;20186;-77
2023/11/15 09:08:27;;;;;;;15.83;2.87;;;13.10;99.90;;;;;;7284200;19;20653;-77
2023/11/15 09:10:53;;;;;;;22.53;2.80;;;13.30;99.90;;;;;;7294454;19;20192;-77
2023/11/15 09:13:19;;;;;;;19.10;2.83;;;13.60;99.90;;;;;;7302441;19;20196;-77
2023/11/15 09:15:50;;;;;;;19.63;2.70;;;13.70;99.90;;;;;;7284258;19;20214;-78
2023/11/15 09:18:21;;;;;;;17.60;2.70;;;13.90;99.90;;;;;;7284372;19;20254;-77
2023/11/15 09:20:49;;;;;;;18.77;3.10;;;14.30;99.90;;;;;;7283208;19;20596;-77
2023/11/15 09:23:16;;;;;;;17.00;2.87;;;14.40;99.90;;;;;;7283881;19;20226;-77
2023/11/15 09:25:42;;;;;;;23.60;3.20;;;14.50;99.90;;;;;;7284049;19;20724;-77
2023/11/15 09:28:10;;;;;;;19.57;3.47;;;14.50;99.90;;;;;;7282869;19;20249;-77
2023/11/15 09:30:36;;;;;;;20.00;2.63;;;14.60;99.90;;;;;;7282836;19;20597;-77
2023/11/15 09:33:05;;;;;;;22.20;3.00;;;14.60;99.90;;;;;;7281634;19;20181;-78
2023/11/15 09:35:31;;;;;;;22.20;3.13;;;14.60;99.90;;;;;;7282647;19;20269;-77
2023/11/15 09:37:57;;;;;;;18.80;2.67;;;14.30;99.90;;;;;;7282777;19;20632;-78
2023/11/15 09:40:25;;;;;;;18.63;3.20;;;14.00;99.90;;;;;;7294103;19;20716;-77
2023/11/15 09:42:52;;;;;;;19.77;2.60;;;13.90;99.90;;;;;;7304347;19;20181;-77
2023/11/15 09:45:19;;;;;;;17.73;2.60;;;13.70;99.90;;;;;;7281865;19;20198;-77
2023/11/15 09:47:47;;;;;;;16.30;2.70;;;13.90;99.90;;;;;;7282307;19;20206;-78
2023/11/15 09:50:17;;;;;;;20.17;2.63;;;14.10;99.90;;;;;;7283379;19;20237;-78
2023/11/15 09:52:46;;;;;;;17.00;2.27;;;14.20;99.90;;;;;;7282504;19;20623;-77
2023/11/15 09:55:12;;;;;;;15.33;2.33;;;14.30;99.90;;;;;;7282973;19;20250;-77
2023/11/15 09:57:39;;;;;;;19.40;3.00;;;14.40;99.90;;;;;;7282947;19;20677;-77
2023/11/15 10:00:10;;;;;;;16.80;2.20;;;14.70;99.90;;;;;;7280335;19;20189;-77
2023/11/15 10:02:37;;;;;;;14.80;2.53;;;14.20;99.90;;;;;;7281286;19;20209;-77
2023/11/15 10:05:19;;;;;;;18.07;2.93;;;14.10;99.90;;;;;;7282651;19;20194;-77
2023/11/15 10:07:50;;;;;;;20.27;2.77;;;14.00;99.90;;;;;;7282254;19;20615;-77
2023/11/15 10:10:24;;;;;;;22.83;2.77;;;14.00;99.90;;;;;;7284070;19;20181;-78
2023/11/15 10:12:54;;;;;;;15.20;2.40;;;14.10;99.90;;;;;;7284432;19;20204;-78
2023/11/15 10:15:39;;;;;;;19.67;2.73;;;13.90;99.90;;;;;;7290396;19;20245;-78
2023/11/15 10:18:14;;;;;;;16.43;2.23;;;13.80;99.90;;;;;;7187710;19;2004655;-78
2023/11/15 10:20:41;;;;;;;16.77;2.67;;;13.70;99.90;;;;;;7287859;19;20189;-78
2023/11/15 10:23:10;;;;;;;12.50;2.70;;;13.70;99.90;;;;;;7289676;19;20209;-78
2023/11/15 10:25:50;;;;;;;17.40;2.40;;;13.80;99.90;;;;;;7289166;19;20543;-78
2023/11/15 10:28:21;;;;;;;20.83;3.07;;;13.80;99.90;;;;;;7287724;19;20188;-78
2023/11/15 10:30:59;;;;;;;19.07;2.60;;;13.80;99.90;;;;;;7288851;19;20674;-78
2023/11/15 10:33:28;;;;;;;15.90;2.60;;;14.00;99.90;;;;;;7266333;19;20199;-77
2023/11/15 10:35:55;;;;;;;16.37;2.63;;;14.10;99.90;;;;;;7295937;19;20183;-77
2023/11/15 10:38:23;;;;;;;16.17;2.90;;;14.20;99.90;;;;;;7309616;19;20532;-78
2023/11/15 10:40:52;;;;;;;19.23;2.70;;;14.30;99.90;;;;;;7288743;19;20193;-78
2023/11/15 10:43:19;;;;;;;19.50;2.53;;;14.30;99.90;;;;;;7289214;19;20653;-78
2023/11/15 10:45:46;;;;;;;20.17;2.70;;;14.30;99.90;;;;;;7287332;19;20220;-77
2023/11/15 10:48:15;;;;;;;15.53;2.43;;;14.10;99.90;;;;;;7288933;19;20246;-78
2023/11/15 10:50:45;;;;;;;14.57;2.70;;;14.30;99.90;;;;;;7288451;19;20711;-77
2023/11/15 10:53:12;;;;;;;20.73;3.20;;;14.30;99.90;;;;;;7287009;19;20213;-77
2023/11/15 10:55:39;;;;;;;10.80;1.93;;;14.50;99.90;;;;;;7289046;19;20265;-78
2023/11/15 10:58:08;;;;;;;14.63;2.17;;;15.10;99.90;;;;;;7287931;19;20577;-78
2023/11/15 11:00:35;;;;;;;18.23;2.40;;;15.30;99.90;;;;;;7287604;19;20194;-78
2023/11/15 11:03:02;;;;;;;13.53;2.33;;;15.20;99.90;;;;;;7285951;19;20188;-78
2023/11/15 11:05:56;;;;;;;12.67;1.97;;;15.40;99.90;;;;;;7288287;19;20188;-78
2023/11/15 11:08:27;;;;;;;16.30;2.03;;;15.60;99.90;;;;;;7287564;19;20189;-78
2023/11/15 11:11:19;;;;;;;15.60;2.30;;;15.70;99.90;;;;;;7284539;19;20188;-77
2023/11/15 11:14:05;;;;;;;13.67;2.17;;;16.40;99.90;;;;;;7287063;19;20264;-78
2023/11/15 11:16:34;;;;;;;13.50;2.00;;;17.00;99.90;;;;;;7184485;19;2004684;-78
2023/11/15 11:19:21;;;;;;;10.13;1.67;;;17.80;99.90;;;;;;7286962;19;20719;-78
2023/11/15 11:24:34;;;;;;;10.13;1.83;;;17.60;99.90;;;;;;7181733;19;2004765;-78
2023/11/15 11:27:28;;;;;;;14.17;1.80;;;17.20;99.90;;;;;;7286995;19;20196;-78
2023/11/15 11:30:11;;;;;;;11.90;2.10;;;17.00;99.90;;;;;;7270803;19;20536;-78
2023/11/15 11:32:41;;;;;;;9.90;1.80;;;17.40;99.90;;;;;;7285772;19;20657;-78
2023/11/15 11:35:07;;;;;;;12.67;1.97;;;17.00;99.90;;;;;;7286055;19;20194;-78
2023/11/15 11:38:13;;;;;;;11.60;2.20;;;17.30;99.90;;;;;;7287667;19;20191;-78
2023/11/15 11:40:38;;;;;;;7.73;1.90;;;17.70;99.90;;;;;;7183006;19;2006283;-78
2023/11/15 11:43:15;;;;;;;13.67;1.80;;;18.00;99.90;;;;;;7286216;19;20203;-78
2023/11/15 11:45:44;;;;;;;13.70;1.77;;;17.40;99.90;;;;;;7285060;19;20205;-78
2023/11/15 11:48:24;;;;;;;11.53;2.10;;;17.30;99.90;;;;;;7286172;19;20198;-78
2023/11/15 11:51:03;;;;;;;14.40;2.50;;;17.10;99.90;;;;;;7287558;19;20194;-78
2023/11/15 11:53:29;;;;;;;11.90;1.90;;;16.90;99.90;;;;;;7182856;19;2004812;-78
2023/11/15 11:55:56;;;;;;;11.83;2.20;;;16.70;99.90;;;;;;7286172;19;20196;-77
2023/11/15 11:58:27;;;;;;;13.80;1.90;;;16.40;99.90;;;;;;7308501;19;20187;-78
2023/11/15 12:01:19;;;;;;;13.20;2.10;;;16.70;99.90;;;;;;7284169;19;20198;-77
2023/11/15 12:03:47;;;;;;;11.63;2.07;;;17.20;99.90;;;;;;7285740;19;20206;-78
2023/11/15 12:06:13;;;;;;;14.37;2.13;;;17.20;99.90;;;;;;7286347;19;20206;-78
2023/11/15 12:08:48;;;;;;;14.60;2.17;;;16.90;99.90;;;;;;7286334;19;20294;-78
2023/11/15 12:11:18;;;;;;;12.53;1.80;;;16.70;99.90;;;;;;7286616;19;20573;-78
2023/11/15 12:13:49;;;;;;;14.03;2.10;;;16.60;99.90;;;;;;7283630;19;20213;-78
2023/11/15 12:16:17;;;;;;;10.23;1.90;;;16.50;99.90;;;;;;7286449;19;20208;-78
2023/11/15 12:18:53;;;;;;;13.23;2.00;;;17.00;99.90;;;;;;7284051;19;20196;-79
2023/11/15 12:21:21;;;;;;;11.47;1.87;;;18.00;99.90;;;;;;7283650;19;20197;-78
2023/11/15 12:23:48;;;;;;;15.03;2.17;;;18.00;99.90;;;;;;7285319;19;20223;-78
2023/11/15 12:26:14;;;;;;;11.43;1.70;;;17.60;99.90;;;;;;7281744;19;20199;-78
2023/11/15 12:28:40;;;;;;;9.13;1.60;;;17.50;99.90;;;;;;7284784;19;20211;-78
2023/11/15 12:31:07;;;;;;;9.37;1.50;;;17.10;99.90;;;;;;7285589;19;20187;-78
2023/11/15 12:33:35;;;;;;;11.87;1.70;;;17.40;99.90;;;;;;7284621;19;20192;-78
2023/11/15 12:36:03;;;;;;;14.03;1.97;;;17.40;99.90;;;;;;7286406;19;20190;-78
2023/11/15 12:38:29;;;;;;;12.50;1.90;;;17.10;99.90;;;;;;7284275;19;20234;-78
2023/11/15 12:41:04;;;;;;;13.57;1.83;;;16.40;99.90;;;;;;7284877;19;20198;-77